Time;durP1;ratioP1;P1;durP2;ratioP2;P2;SDS_P1;SDS_P2;PMS_P1;PMS_P2;Temp;Humidity;BMP_temperature;BMP_pressure;BME280_temperature;BME280_humidity;BME280_pressure;Samples;Min_cycle;Max_cycle;Signal;HPM_P1;HPM_P2
2022/03/09 00:02:15;;;;;;;72.50;39.10;;;;;;;0.38;58.83;99476.48;106036;1274;97932;-68
2022/03/09 00:04:46;;;;;;;83.90;42.10;;;;;;;0.37;58.93;99473.02;106021;1273;114142;-66
2022/03/09 00:07:14;;;;;;;75.60;40.90;;;;;;;0.38;58.91;99475.27;105991;1273;95271;-67
2022/03/09 00:09:44;;;;;;;80.50;41.80;;;;;;;0.37;58.95;99474.41;106042;1274;107227;-69
2022/03/09 00:12:14;;;;;;;76.00;41.30;;;;;;;0.37;59.09;99473.02;105983;1274;98000;-68
2022/03/09 00:14:44;;;;;;;78.20;41.70;;;;;;;0.35;59.10;99476.38;106052;1273;97960;-67
2022/03/09 00:17:18;;;;;;;73.80;40.00;;;;;;;0.33;59.21;99478.17;106004;1273;112055;-68
2022/03/09 00:19:46;;;;;;;74.80;38.60;;;;;;;0.31;59.27;99480.48;106028;1274;97945;-68
2022/03/09 00:22:15;;;;;;;70.60;40.00;;;;;;;0.30;59.33;99478.75;106007;1274;108590;-67
2022/03/09 00:24:46;;;;;;;67.30;36.20;;;;;;;0.28;59.28;99479.33;105904;1274;97747;-67
2022/03/09 00:27:14;;;;;;;72.90;38.60;;;;;;;0.23;59.30;99473.52;106012;1274;96409;-67
2022/03/09 00:29:46;;;;;;;67.70;37.20;;;;;;;0.21;59.42;99468.69;106011;1274;111901;-69
2022/03/09 00:32:16;;;;;;;71.80;37.10;;;;;;;0.22;59.54;99468.30;106025;1274;97833;-65
2022/03/09 00:34:45;;;;;;;71.20;38.10;;;;;;;0.22;59.42;99472.68;106073;1274;107765;-67
2022/03/09 00:37:17;;;;;;;69.20;37.40;;;;;;;0.20;59.56;99474.64;105985;1274;97996;-68
2022/03/09 00:39:45;;;;;;;68.00;36.80;;;;;;;0.19;59.58;99470.66;106019;1274;96578;-67
2022/03/09 00:42:14;;;;;;;72.40;38.90;;;;;;;0.20;59.60;99468.88;106009;1274;112092;-70
2022/03/09 00:44:42;;;;;;;70.20;38.20;;;;;;;0.18;59.59;99466.69;106029;1274;97894;-69
2022/03/09 00:47:13;;;;;;;62.10;35.50;;;;;;;0.13;59.68;99457.52;106031;1274;108410;-68
2022/03/09 00:49:44;;;;;;;71.90;38.80;;;;;;;0.10;59.79;99455.51;106063;1274;97906;-69
2022/03/09 00:52:14;;;;;;;70.40;37.40;;;;;;;0.09;59.87;99457.13;106108;1274;97896;-68
2022/03/09 00:54:45;;;;;;;79.40;40.90;;;;;;;0.08;59.75;99458.89;106066;1274;111958;-69
2022/03/09 00:57:20;;;;;;;73.00;39.20;;;;;;;0.04;59.83;99447.80;106038;1274;95214;-68
2022/03/09 00:59:48;;;;;;;72.60;39.20;;;;;;;0.04;59.83;99440.83;106000;1274;108425;-68
2022/03/09 01:02:18;;;;;;;75.40;40.70;;;;;;;0.07;59.86;99435.02;106053;1274;95272;-68
2022/03/09 01:04:52;;;;;;;74.70;40.70;;;;;;;0.10;60.19;99434.94;106128;1274;95336;-66
2022/03/09 01:07:20;;;;;;;77.70;39.70;;;;;;;0.15;60.07;99435.88;106041;1274;111809;-66
2022/03/09 01:09:50;;;;;;;67.50;38.60;;;;;;;0.17;60.17;99435.48;106120;1274;97924;-68
2022/03/09 01:12:20;;;;;;;71.40;38.50;;;;;;;0.16;60.11;99429.22;106044;1274;108893;-67
2022/03/09 01:14:48;;;;;;;75.30;38.70;;;;;;;0.15;60.05;99425.05;106050;1274;97958;-68
2022/03/09 01:17:18;;;;;;;82.90;41.50;;;;;;;0.15;60.29;99422.45;106078;1274;98453;-69
2022/03/09 01:19:53;;;;;;;76.80;41.50;;;;;;;0.14;60.29;99422.64;106111;1274;111984;-69
2022/03/09 01:22:21;;;;;;;78.80;41.80;;;;;;;0.13;60.30;99420.06;106055;1274;97993;-68
2022/03/09 01:24:51;;;;;;;81.10;41.90;;;;;;;0.10;60.35;99420.27;106107;1274;108453;-67
2022/03/09 01:27:22;;;;;;;80.30;43.50;;;;;;;0.08;60.24;99422.78;106088;1274;96408;-67
2022/03/09 01:29:52;;;;;;;77.90;42.00;;;;;;;0.09;60.31;99423.65;106049;1274;97977;-71
2022/03/09 01:32:26;;;;;;;70.90;39.60;;;;;;;0.08;60.46;99418.23;105993;1274;111879;-68
2022/03/09 01:34:58;;;;;;;77.40;43.40;;;;;;;0.07;60.50;99415.64;105997;1274;95290;-68
2022/03/09 01:37:29;;;;;;;79.30;41.40;;;;;;;0.09;60.52;99417.88;106022;1274;108394;-67
2022/03/09 01:39:57;;;;;;;83.10;44.60;;;;;;;0.10;60.68;99418.54;106039;1274;97967;-67
2022/03/09 01:42:26;;;;;;;80.70;43.20;;;;;;;0.09;60.58;99414.56;106090;1274;97909;-66
2022/03/09 01:45:06;;;;;;;84.60;44.50;;;;;;;0.06;60.75;99409.74;106030;1274;109824;-66
2022/03/09 01:47:38;;;;;;;81.80;42.70;;;;;;;0.08;60.80;99407.59;106024;1274;97700;-68
2022/03/09 01:50:09;;;;;;;74.70;40.60;;;;;;;0.12;60.83;99407.00;105998;1274;108405;-69
2022/03/09 01:52:43;;;;;;;80.00;41.70;;;;;;;0.15;60.88;99407.80;106009;1274;98050;-67
2022/03/09 01:55:11;;;;;;;80.80;43.30;;;;;;;0.14;60.95;99406.93;106045;1274;97981;-69
2022/03/09 01:57:41;;;;;;;82.00;41.00;;;;;;;0.13;60.83;99407.13;106078;1274;111023;-69
2022/03/09 02:00:14;;;;;;;81.10;44.00;;;;;;;0.12;61.00;99400.54;106008;1274;98071;-67
2022/03/09 02:02:42;;;;;;;81.60;43.90;;;;;;;0.12;60.92;99396.52;106020;1274;107735;-68
2022/03/09 02:05:15;;;;;;;81.20;44.60;;;;;;;0.12;61.17;99394.60;105990;1274;97954;-68
2022/03/09 02:10:36;;;;;;;75.40;40.30;;;;;;;0.09;61.23;99391.53;106058;1274;112039;-69
2022/03/09 02:13:06;;;;;;;79.50;43.00;;;;;;;0.11;61.23;99389.06;105985;1274;95189;-68
2022/03/09 02:15:35;;;;;;;79.70;40.70;;;;;;;0.11;61.15;99391.33;105971;1274;106742;-68
2022/03/09 02:18:08;;;;;;;78.90;42.10;;;;;;;0.12;61.39;99393.05;106044;1274;98542;-67
2022/03/09 02:20:46;;;;;;;72.70;40.20;;;;;;;0.10;61.29;99396.39;105994;1274;95627;-68
2022/03/09 02:23:17;;;;;;;76.70;41.30;;;;;;;0.11;61.32;99397.06;106072;1274;110268;-70
2022/03/09 02:25:45;;;;;;;73.00;39.20;;;;;;;0.12;61.47;99395.98;106046;1274;97870;-71
2022/03/09 02:28:15;;;;;;;76.80;41.70;;;;;;;0.17;61.54;99402.87;106067;1274;108860;-68
2022/03/09 02:30:43;;;;;;;74.50;39.80;;;;;;;0.21;61.60;99405.54;105971;1274;97871;-67
2022/03/09 02:33:35;;;;;;;74.70;38.90;;;;;;;0.24;61.39;99406.49;106067;1274;98033;-68
2022/03/09 02:36:06;;;;;;;72.10;38.40;;;;;;;0.28;61.65;99405.89;106026;1274;111981;-68
2022/03/09 02:38:37;;;;;;;75.90;38.80;;;;;;;0.31;61.80;99399.90;106097;1274;97893;-68
2022/03/09 02:41:08;;;;;;;73.40;39.00;;;;;;;0.32;61.84;99388.89;106032;1274;108339;-67
2022/03/09 02:43:38;;;;;;;71.20;37.40;;;;;;;0.29;61.68;99392.60;106033;1274;97912;-67
2022/03/09 02:46:09;;;;;;;67.40;37.60;;;;;;;0.29;61.85;99391.57;106066;1274;97862;-66
2022/03/09 02:48:40;;;;;;;70.20;39.00;;;;;;;0.27;61.70;99396.86;106110;1274;111979;-68
2022/03/09 02:51:13;;;;;;;70.20;38.10;;;;;;;0.25;61.65;99393.77;105979;1274;97961;-68
2022/03/09 02:53:44;;;;;;;73.20;40.00;;;;;;;0.26;61.86;99401.75;106036;1274;108607;-69
2022/03/09 02:56:12;;;;;;;72.80;38.90;;;;;;;0.28;62.03;99402.40;106081;1274;97900;-69
2022/03/09 02:58:46;;;;;;;74.00;38.90;;;;;;;0.31;61.91;99401.98;106010;1274;97903;-67
2022/03/09 03:01:17;;;;;;;70.00;38.80;;;;;;;0.34;61.98;99396.69;106096;1274;112009;-68
2022/03/09 03:03:45;;;;;;;73.20;39.50;;;;;;;0.36;62.05;99394.36;106126;1274;98461;-68
2022/03/09 03:06:14;;;;;;;67.90;38.50;;;;;;;0.38;62.00;99393.62;105975;1274;108127;-63
2022/03/09 03:08:44;;;;;;;73.90;40.30;;;;;;;0.40;62.20;99394.59;105990;1274;97887;-67
2022/03/09 03:11:12;;;;;;;69.90;39.70;;;;;;;0.43;62.09;99390.86;105990;1274;97880;-64
2022/03/09 03:13:49;;;;;;;72.80;38.80;;;;;;;0.44;62.11;99393.61;106039;1274;111313;-67
2022/03/09 03:16:20;;;;;;;75.50;40.80;;;;;;;0.45;62.11;99396.91;106019;1274;95479;-66
2022/03/09 03:18:48;;;;;;;69.80;40.40;;;;;;;0.46;62.21;99396.73;106088;1274;107876;-66
2022/03/09 03:21:18;;;;;;;68.70;38.70;;;;;;;0.47;62.17;99400.89;105967;1274;98074;-66
2022/03/09 03:23:49;;;;;;;67.80;37.70;;;;;;;0.49;62.15;99400.84;106030;1274;95368;-65
2022/03/09 03:26:18;;;;;;;71.30;39.50;;;;;;;0.50;62.21;99401.50;106059;1274;111773;-69
2022/03/09 03:28:49;;;;;;;72.10;40.00;;;;;;;0.51;62.38;99397.13;106059;1274;97723;-67
2022/03/09 03:31:22;;;;;;;71.80;38.00;;;;;;;0.51;62.37;99392.92;106069;1273;108468;-65
2022/03/09 03:33:51;;;;;;;;;;;;;;;0.51;62.36;99395.18;106188;1274;97901;-65
2022/03/09 03:36:20;;;;;;;68.50;37.00;;;;;;;0.50;62.36;99402.20;105533;1273;715614;-66
2022/03/09 03:38:52;;;;;;;70.60;36.90;;;;;;;0.51;62.48;99403.92;106030;1273;111084;-65
2022/03/09 03:41:23;;;;;;;66.10;37.40;;;;;;;0.51;62.37;99400.95;106135;1273;97976;-65
2022/03/09 03:43:54;;;;;;;72.50;38.30;;;;;;;0.50;62.47;99400.10;106080;1273;107315;-68
2022/03/09 03:46:25;;;;;;;64.00;36.30;;;;;;;0.50;62.54;99400.09;106054;1274;97896;-67
2022/03/09 03:48:56;;;;;;;63.40;35.40;;;;;;;0.50;62.52;99402.02;105968;1274;95281;-66
2022/03/09 03:51:28;;;;;;;69.30;36.90;;;;;;;0.52;62.65;99402.34;106054;1273;112696;-68
2022/03/09 03:53:58;;;;;;;63.20;35.40;;;;;;;0.51;62.59;99403.56;106100;1274;97980;-65
2022/03/09 03:56:28;;;;;;;60.30;33.10;;;;;;;0.52;62.66;99402.32;106052;1273;108341;-67
2022/03/09 03:58:58;;;;;;;64.40;33.70;;;;;;;0.52;62.67;99402.52;105960;1274;95362;-68
2022/03/09 04:01:29;;;;;;;54.40;29.70;;;;;;;0.52;62.66;99405.45;106066;1273;97919;-69
2022/03/09 04:04:00;;;;;;;61.60;32.00;;;;;;;0.52;62.75;99401.44;105981;1273;112030;-67
2022/03/09 04:06:31;;;;;;;55.10;29.30;;;;;;;0.53;62.83;99403.17;105977;1274;97817;-67
2022/03/09 04:09:06;;;;;;;45.80;25.00;;;;;;;0.52;62.86;99402.50;106012;1273;108753;-66
2022/03/09 04:11:34;;;;;;;42.00;21.00;;;;;;;0.52;62.78;99401.46;106025;1273;97994;-67
2022/03/09 04:14:04;;;;;;;37.00;17.80;;;;;;;0.51;62.77;99404.98;106127;1274;97828;-68
2022/03/09 04:16:34;;;;;;;39.80;19.50;;;;;;;0.49;62.72;99403.45;106083;1273;111637;-68
2022/03/09 04:19:04;;;;;;;37.60;18.50;;;;;;;0.47;62.81;99402.80;106056;1273;97877;-65
2022/03/09 04:21:34;;;;;;;35.30;18.10;;;;;;;0.47;62.83;99397.06;106102;1273;107810;-69
2022/03/09 04:24:08;;;;;;;38.40;18.60;;;;;;;0.46;62.99;99399.52;105997;1273;98543;-68
2022/03/09 04:26:36;;;;;;;39.40;20.20;;;;;;;0.43;62.99;99399.77;106084;1273;97764;-68
2022/03/09 04:29:06;;;;;;;42.00;20.70;;;;;;;0.43;63.07;99399.21;106081;1273;112579;-69
2022/03/09 04:31:41;;;;;;;41.50;20.70;;;;;;;0.42;63.00;99396.10;105998;1274;96381;-68
2022/03/09 04:34:09;;;;;;;36.00;18.80;;;;;;;0.43;63.11;99397.48;106080;1274;106590;-69
2022/03/09 04:36:39;;;;;;;32.40;15.70;;;;;;;0.44;63.02;99397.11;106079;1272;97959;-70
2022/03/09 04:39:10;;;;;;;31.10;15.70;;;;;;;0.43;63.09;99397.48;106001;1273;96576;-70
2022/03/09 04:41:38;;;;;;;27.40;12.40;;;;;;;0.43;63.16;99399.41;105981;1274;111874;-68
2022/03/09 04:44:08;;;;;;;28.40;12.20;;;;;;;0.43;63.13;99400.80;106042;1273;97918;-68
2022/03/09 04:46:38;;;;;;;26.30;12.40;;;;;;;0.43;63.27;99405.15;106150;1274;107670;-69
2022/03/09 04:49:06;;;;;;;24.80;11.70;;;;;;;0.44;63.24;99402.35;105866;1273;98007;-69
2022/03/09 04:51:36;;;;;;;26.80;12.40;;;;;;;0.42;63.24;99404.48;105807;1274;96382;-69
2022/03/09 04:54:06;;;;;;;29.70;13.00;;;;;;;0.42;63.24;99406.92;106911;1274;111988;-69
2022/03/09 04:56:37;;;;;;;28.10;13.50;;;;;;;0.42;63.28;99402.73;105955;1274;98481;-68
2022/03/09 04:59:18;;;;;;;32.50;14.90;;;;;;;0.43;63.45;99407.42;106014;1274;108901;-68
2022/03/09 05:01:46;;;;;;;29.10;14.20;;;;;;;0.43;63.41;99408.64;105956;1274;98993;-69
2022/03/09 05:04:18;;;;;;;34.60;15.90;;;;;;;0.42;63.33;99411.29;106023;1274;95271;-67
2022/03/09 05:06:47;;;;;;;32.30;16.40;;;;;;;0.42;63.38;99411.45;106062;1274;112144;-67
2022/03/09 05:09:16;;;;;;;31.70;16.10;;;;;;;0.42;63.46;99412.16;106020;1274;97771;-69
2022/03/09 05:11:46;;;;;;;33.90;17.50;;;;;;;0.42;63.51;99415.66;106050;1274;108430;-67
2022/03/09 05:14:14;;;;;;;37.80;18.50;;;;;;;0.41;63.42;99417.44;106092;1274;97835;-68
2022/03/09 05:16:44;;;;;;;37.90;19.00;;;;;;;0.42;63.51;99417.06;106120;1274;95256;-70
2022/03/09 05:19:15;;;;;;;40.60;21.10;;;;;;;0.42;63.55;99417.23;106068;1274;111917;-68
2022/03/09 05:21:46;;;;;;;36.20;18.70;;;;;;;0.41;63.51;99420.91;106012;1274;97851;-68
2022/03/09 05:24:36;;;;;;;36.10;17.40;;;;;;;0.40;63.53;99422.86;106068;1274;109103;-68
2022/03/09 05:27:04;;;;;;;36.60;19.50;;;;;;;0.42;63.65;99424.23;106045;1274;95292;-69
2022/03/09 05:29:37;;;;;;;40.60;20.80;;;;;;;0.42;63.77;99421.25;106024;1274;96980;-68
2022/03/09 05:32:08;;;;;;;38.30;20.60;;;;;;;0.39;63.70;99423.25;106043;1274;111928;-68
2022/03/09 05:34:39;;;;;;;40.30;21.70;;;;;;;0.40;63.77;99420.79;106020;1274;95276;-70
2022/03/09 05:37:08;;;;;;;34.70;18.40;;;;;;;0.42;63.69;99424.20;105986;1274;108374;-69
2022/03/09 05:39:40;;;;;;;26.10;12.70;;;;;;;0.42;63.85;99429.79;105997;1274;97894;-70
2022/03/09 05:42:14;;;;;;;32.30;15.70;;;;;;;0.42;63.80;99430.67;106058;1274;96999;-68
2022/03/09 05:44:42;;;;;;;31.10;14.10;;;;;;;0.40;63.68;99433.67;106055;1274;111435;-67
2022/03/09 05:47:34;;;;;;;27.80;13.20;;;;;;;0.36;63.72;99435.52;106085;1274;97984;-67
2022/03/09 05:50:08;;;;;;;20.40;9.10;;;;;;;0.34;63.73;99434.89;106091;1273;107788;-69
2022/03/09 05:52:36;;;;;;;26.20;12.70;;;;;;;0.28;63.50;99433.13;106163;1273;96329;-66
2022/03/09 05:55:09;;;;;;;25.60;11.50;;;;;;;0.24;63.67;99437.75;106118;1273;97098;-67
2022/03/09 05:57:37;;;;;;;26.00;12.70;;;;;;;0.21;63.77;99439.03;106171;1273;111887;-66
2022/03/09 06:00:10;;;;;;;27.90;11.70;;;;;;;0.20;63.90;99436.47;106075;1273;97850;-68
2022/03/09 06:02:38;;;;;;;27.20;12.70;;;;;;;0.21;63.86;99437.48;105943;1273;108911;-69
2022/03/09 06:05:09;;;;;;;29.20;15.20;;;;;;;0.24;64.02;99442.45;106113;1273;97855;-67
2022/03/09 06:07:39;;;;;;;30.10;15.20;;;;;;;0.27;64.02;99438.36;106104;1273;97832;-69
2022/03/09 06:10:11;;;;;;;28.70;15.70;;;;;;;0.32;64.09;99441.58;105996;1273;112178;-68
2022/03/09 06:12:40;;;;;;;29.70;13.60;;;;;;;0.35;64.17;99447.41;106130;1273;97878;-67
2022/03/09 06:15:15;;;;;;;30.20;14.20;;;;;;;0.39;64.28;99445.42;106109;1273;108211;-72
2022/03/09 06:17:49;;;;;;;28.60;14.40;;;;;;;0.44;64.24;99449.64;106152;1273;97941;-69
2022/03/09 06:20:25;;;;;;;27.40;13.60;;;;;;;0.48;64.21;99450.42;106030;1273;97830;-70
2022/03/09 06:22:57;;;;;;;30.80;15.00;;;;;;;0.45;64.14;99457.11;106009;1273;110945;-70
2022/03/09 06:25:25;;;;;;;32.20;14.90;;;;;;;0.44;64.43;99456.27;106038;1273;97878;-71
2022/03/09 06:27:59;;;;;;;31.30;16.30;;;;;;;0.47;64.29;99459.33;105988;1274;108216;-70
2022/03/09 06:30:31;;;;;;;33.30;17.80;;;;;;;0.40;64.14;99457.60;105953;1273;98646;-68
2022/03/09 06:32:59;;;;;;;32.30;16.30;;;;;;;0.30;64.27;99451.73;105989;1273;97955;-69
2022/03/09 06:35:27;;;;;;;35.70;18.30;;;;;;;0.18;64.49;99457.42;105988;1274;111493;-68
2022/03/09 06:37:59;;;;;;;36.30;19.00;;;;;;;0.11;64.52;99459.49;106138;1273;96374;-69
2022/03/09 06:40:31;;;;;;;39.80;19.90;;;;;;;0.15;64.58;99457.84;106060;1273;107553;-70
2022/03/09 06:42:59;;;;;;;38.40;19.80;;;;;;;0.23;64.74;99460.26;105978;1273;97955;-70
2022/03/09 06:45:28;;;;;;;40.00;20.50;;;;;;;0.32;64.76;99460.23;105999;1273;97954;-69
2022/03/09 06:47:56;;;;;;;35.00;18.80;;;;;;;0.37;64.66;99457.14;106021;1274;111012;-68
2022/03/09 06:50:27;;;;;;;37.80;20.40;;;;;;;0.38;64.80;99455.90;106015;1273;97070;-67
2022/03/09 06:52:55;;;;;;;35.20;17.80;;;;;;;0.44;64.89;99458.70;105976;1273;108420;-69
2022/03/09 06:55:24;;;;;;;37.30;20.00;;;;;;;0.51;64.93;99462.56;106061;1273;98568;-70
2022/03/09 06:57:55;;;;;;;36.90;19.80;;;;;;;0.57;64.96;99466.77;106153;1273;97828;-71
2022/03/09 07:00:22;;;;;;;36.80;19.30;;;;;;;0.61;64.98;99466.69;106195;1273;111398;-70
2022/03/09 07:02:50;;;;;;;36.80;19.50;;;;;;;0.64;64.85;99464.66;106087;1273;97873;-69
2022/03/09 07:05:19;;;;;;;37.00;19.30;;;;;;;0.71;65.02;99460.84;106053;1273;108362;-70
2022/03/09 07:07:49;;;;;;;35.80;18.10;;;;;;;0.75;64.86;99459.85;106022;1273;97863;-69
2022/03/09 07:10:17;;;;;;;34.30;18.80;;;;;;;0.78;64.91;99463.64;106093;1273;98016;-70
2022/03/09 07:12:49;;;;;;;33.90;18.30;;;;;;;0.80;64.96;99461.29;106113;1273;111466;-70
2022/03/09 07:15:18;;;;;;;35.10;18.20;;;;;;;0.85;65.06;99460.98;106055;1273;97790;-70
2022/03/09 07:17:48;;;;;;;35.10;18.80;;;;;;;0.91;65.15;99467.13;106048;1273;108242;-70
2022/03/09 07:20:20;;;;;;;33.50;18.00;;;;;;;0.96;65.13;99468.23;106082;1273;97995;-71
2022/03/09 07:22:48;;;;;;;34.40;17.60;;;;;;;0.98;65.21;99466.92;106221;1273;97918;-74
2022/03/09 07:25:16;;;;;;;34.30;18.50;;;;;;;0.99;65.16;99466.90;106085;1273;111347;-73
2022/03/09 07:27:44;;;;;;;39.30;18.80;;;;;;;0.98;65.17;99465.16;106023;1273;97871;-71
2022/03/09 07:30:13;;;;;;;35.70;19.10;;;;;;;1.01;65.11;99466.50;105975;1273;108219;-70
2022/03/09 07:32:42;;;;;;;34.80;17.70;;;;;;;1.06;65.20;99465.30;105871;1273;98010;-71
2022/03/09 07:35:22;;;;;;;38.10;20.30;;;;;;;1.11;65.22;99466.23;106058;1273;95364;-72
2022/03/09 07:37:51;;;;;;;37.00;19.70;;;;;;;1.16;65.25;99465.06;105927;1273;112964;-69
2022/03/09 07:40:21;;;;;;;32.30;17.50;;;;;;;1.23;65.53;99466.25;105922;1273;97864;-69
2022/03/09 07:42:49;;;;;;;34.10;18.40;;;;;;;1.30;65.48;99465.55;105899;1273;107620;-68
2022/03/09 07:45:22;;;;;;;32.90;17.90;;;;;;;1.36;65.39;99467.80;105897;1273;97883;-69
2022/03/09 07:47:50;;;;;;;35.00;18.60;;;;;;;1.42;65.51;99467.45;105943;1273;95180;-68
2022/03/09 07:50:19;;;;;;;35.30;19.20;;;;;;;1.49;65.62;99464.65;105911;1273;111794;-68
2022/03/09 07:52:47;;;;;;;32.50;18.00;;;;;;;1.54;65.52;99466.95;105991;1273;97840;-68
2022/03/09 07:55:15;;;;;;;34.30;19.00;;;;;;;1.59;65.48;99465.94;105926;1273;108396;-69
2022/03/09 07:57:43;;;;;;;33.00;17.10;;;;;;;1.64;65.41;99461.42;105938;1273;96498;-69
2022/03/09 08:00:13;;;;;;;35.30;18.20;;;;;;;1.67;65.48;99461.15;105820;1273;97896;-69
2022/03/09 08:02:41;;;;;;;30.60;16.10;;;;;;;1.70;65.55;99461.24;107977;1273;111299;-69
2022/03/09 08:05:11;;;;;;;30.10;15.90;;;;;;;1.72;65.41;99460.31;107985;1273;95844;-70
2022/03/09 08:07:39;;;;;;;34.60;18.30;;;;;;;1.72;65.26;99465.02;106183;1273;108305;-69
2022/03/09 08:10:09;;;;;;;36.00;18.30;;;;;;;1.73;65.22;99461.51;106172;1272;98059;-70
2022/03/09 08:12:38;;;;;;;32.80;18.20;;;;;;;1.71;65.29;99460.33;105961;1273;98620;-70
2022/03/09 08:15:10;;;;;;;33.60;18.60;;;;;;;1.70;65.46;99461.75;105966;1273;110351;-70
2022/03/09 08:17:39;;;;;;;33.50;19.00;;;;;;;1.73;65.49;99458.87;105969;1274;98006;-71
2022/03/09 08:20:08;;;;;;;35.50;19.30;;;;;;;1.79;65.65;99457.30;106036;1273;107796;-70
2022/03/09 08:22:39;;;;;;;37.90;19.60;;;;;;;1.87;65.51;99457.91;106009;1273;97966;-69
2022/03/09 08:25:07;;;;;;;34.50;19.90;;;;;;;1.96;65.65;99456.96;106018;1273;97898;-67
2022/03/09 08:27:35;;;;;;;35.40;18.70;;;;;;;2.03;65.87;99457.25;106101;1274;110802;-70
2022/03/09 08:30:04;;;;;;;33.30;18.70;;;;;;;2.12;65.90;99454.52;106071;1272;96973;-69
2022/03/09 08:32:32;;;;;;;34.40;18.70;;;;;;;2.21;65.87;99452.33;106033;1273;107718;-71
2022/03/09 08:35:01;;;;;;;34.30;18.60;;;;;;;2.29;65.87;99447.51;106008;1273;97887;-69
2022/03/09 08:37:29;;;;;;;34.00;19.60;;;;;;;2.36;65.85;99447.80;106100;1273;97849;-69
2022/03/09 08:39:57;;;;;;;33.40;18.90;;;;;;;2.43;66.00;99448.81;106030;1273;111504;-69
2022/03/09 08:42:25;;;;;;;36.40;20.70;;;;;;;2.50;65.76;99447.86;106080;1273;97877;-69
2022/03/09 08:44:52;;;;;;;36.00;20.70;;;;;;;2.60;65.98;99445.63;106030;1273;108285;-68
2022/03/09 08:47:21;;;;;;;35.70;20.00;;;;;;;2.68;65.98;99445.68;105912;1273;97971;-68
2022/03/09 08:49:49;;;;;;;36.90;20.80;;;;;;;2.75;66.32;99450.39;105943;1274;95228;-70
2022/03/09 08:52:19;;;;;;;36.60;19.30;;;;;;;2.81;66.02;99447.00;106072;1273;112089;-70
2022/03/09 08:54:47;;;;;;;37.60;21.90;;;;;;;2.86;66.04;99445.79;106089;1273;97979;-70
2022/03/09 08:57:16;;;;;;;34.50;20.00;;;;;;;2.91;65.70;99449.45;106015;1273;107761;-71
2022/03/09 08:59:45;;;;;;;35.20;19.80;;;;;;;2.96;66.07;99447.89;106038;1273;97931;-72
2022/03/09 09:02:13;;;;;;;40.00;22.20;;;;;;;3.01;65.87;99444.77;106056;1274;97968;-72
2022/03/09 09:04:42;;;;;;;37.20;22.00;;;;;;;3.05;65.94;99444.25;106056;1273;111355;-70
2022/03/09 09:07:11;;;;;;;40.60;23.20;;;;;;;3.08;65.96;99444.32;105993;1273;97893;-71
2022/03/09 09:09:39;;;;;;;40.80;23.30;;;;;;;3.08;65.65;99449.04;106041;1275;108327;-71
2022/03/09 09:12:10;;;;;;;41.30;24.50;;;;;;;3.07;66.01;99445.21;106077;1273;95242;-70
2022/03/09 09:14:40;;;;;;;42.50;24.30;;;;;;;3.06;65.97;99444.38;106155;1273;97914;-69
2022/03/09 09:17:09;;;;;;;42.50;24.60;;;;;;;3.05;66.20;99444.95;106144;1273;112921;-67
2022/03/09 09:19:57;;;;;;;39.90;23.60;;;;;;;3.03;65.86;99439.61;105925;1274;97896;-70
2022/03/09 09:22:25;;;;;;;44.10;24.20;;;;;;;2.90;65.47;99442.85;105980;1275;107642;-70
2022/03/09 09:24:53;;;;;;;41.10;24.20;;;;;;;2.74;65.76;99445.52;106012;1273;97910;-69
2022/03/09 09:27:22;;;;;;;38.80;23.30;;;;;;;2.72;65.86;99445.04;105978;1273;97871;-69
2022/03/09 09:30:10;;;;;;;43.80;25.10;;;;;;;2.72;65.59;99444.17;106102;1273;114246;-70
2022/03/09 09:32:38;;;;;;;42.10;25.10;;;;;;;2.71;65.76;99443.15;106257;1273;96358;-70
2022/03/09 09:35:07;;;;;;;39.50;23.20;;;;;;;2.70;65.83;99451.75;106073;1273;107895;-68
2022/03/09 09:37:36;;;;;;;42.10;24.20;;;;;;;2.72;65.71;99449.96;106084;1273;97356;-67
2022/03/09 09:40:07;;;;;;;40.50;22.30;;;;;;;2.69;65.66;99447.22;105966;1273;97833;-69
2022/03/09 09:42:36;;;;;;;40.30;22.30;;;;;;;2.67;66.11;99448.19;106780;1273;111946;-68
2022/03/09 09:45:20;;;;;;;41.40;22.60;;;;;;;2.63;65.77;99451.83;107995;1273;96380;-70
2022/03/09 09:47:51;;;;;;;38.80;23.30;;;;;;;2.63;65.79;99450.79;105984;1273;107873;-70
2022/03/09 09:50:20;;;;;;;42.20;24.50;;;;;;;2.69;65.87;99446.01;106307;1273;96251;-69
2022/03/09 09:52:48;;;;;;;41.00;23.20;;;;;;;2.73;65.90;99445.36;106247;1273;98657;-70
2022/03/09 09:55:16;;;;;;;39.30;22.60;;;;;;;2.75;65.83;99442.67;106091;1273;111280;-69
2022/03/09 09:57:47;;;;;;;39.80;23.30;;;;;;;2.78;65.88;99440.62;106146;1273;97847;-70
2022/03/09 10:00:16;;;;;;;41.80;23.80;;;;;;;2.84;66.15;99441.83;106115;1273;107747;-70
2022/03/09 10:02:44;;;;;;;42.00;24.60;;;;;;;2.88;65.77;99436.25;106049;1273;97950;-69
2022/03/09 10:05:15;;;;;;;41.90;24.10;;;;;;;2.89;65.64;99434.48;105922;1275;96240;-68
2022/03/09 10:08:05;;;;;;;38.70;23.50;;;;;;;2.93;65.96;99434.31;106129;1273;111410;-69
2022/03/09 10:10:38;;;;;;;41.10;24.70;;;;;;;3.00;65.93;99434.27;106072;1273;95948;-70
2022/03/09 10:13:30;;;;;;;43.20;26.50;;;;;;;3.00;65.81;99433.38;106147;1273;107699;-69
2022/03/09 10:16:10;;;;;;;42.40;25.20;;;;;;;2.91;65.38;99431.77;106098;1273;97883;-68
2022/03/09 10:18:45;;;;;;;43.20;25.60;;;;;;;2.92;65.91;99429.45;106247;1273;97962;-69
2022/03/09 10:21:17;;;;;;;42.00;24.40;;;;;;;3.02;66.01;99427.73;106064;1273;111168;-67
2022/03/09 10:23:53;;;;;;;48.30;27.20;;;;;;;3.10;66.08;99427.75;106019;1273;97950;-69
2022/03/09 10:26:31;;;;;;;44.30;25.20;;;;;;;3.21;65.90;99422.28;105990;1273;108171;-67
2022/03/09 10:29:04;;;;;;;42.60;24.30;;;;;;;3.32;66.14;99423.45;106023;1275;95271;-70
2022/03/09 10:31:36;;;;;;;42.70;24.00;;;;;;;3.39;66.21;99424.44;106067;1273;96317;-70
2022/03/09 10:34:11;;;;;;;42.40;25.90;;;;;;;3.41;66.14;99422.59;106112;1273;112041;-66
2022/03/09 10:37:11;;;;;;;48.60;26.50;;;;;;;3.46;66.01;99422.25;106017;1273;97875;-69
2022/03/09 10:39:39;;;;;;;43.30;25.10;;;;;;;3.54;65.89;99418.26;105715;1273;107508;-69
2022/03/09 10:42:25;;;;;;;55.00;32.80;;;;;;;3.57;65.93;99413.77;106076;1273;96655;-72
2022/03/09 10:44:54;;;;;;;46.40;28.00;;;;;;;3.61;66.03;99411.02;106206;1273;97857;-70
2022/03/09 10:47:34;;;;;;;43.60;24.80;;;;;;;3.59;66.03;99410.88;106118;1273;110895;-69
2022/03/09 10:50:28;;;;;;;46.00;26.90;;;;;;;3.63;66.24;99412.86;106141;1273;97969;-70
2022/03/09 10:53:03;;;;;;;45.00;25.90;;;;;;;3.66;65.98;99411.69;106055;1273;106492;-69
2022/03/09 10:55:37;;;;;;;45.60;25.70;;;;;;;3.68;65.81;99409.48;106158;1273;97921;-69
2022/03/09 10:58:18;;;;;;;44.60;27.10;;;;;;;3.70;65.97;99416.59;106045;1273;97811;-71
2022/03/09 11:00:51;;;;;;;48.10;27.90;;;;;;;3.72;65.97;99420.05;106182;1273;111400;-72
2022/03/09 11:03:25;;;;;;;47.80;28.10;;;;;;;3.74;65.72;99422.77;106206;1273;98257;-70
2022/03/09 11:05:53;;;;;;;;;;;;;;;3.75;66.02;99423.08;106090;1273;107738;-69
2022/03/09 11:08:27;;;;;;;54.10;31.70;;;;;;;3.72;65.70;99425.11;106140;1273;97864;-70
2022/03/09 11:11:00;;;;;;;51.70;29.90;;;;;;;3.70;65.71;99424.33;106163;1273;97888;-68
2022/03/09 11:13:33;;;;;;;54.20;32.20;;;;;;;3.66;65.96;99422.56;106121;1273;111595;-70
2022/03/09 11:16:02;;;;;;;54.20;32.00;;;;;;;3.67;65.84;99420.74;106169;1273;96555;-69
2022/03/09 11:18:33;;;;;;;52.10;30.40;;;;;;;3.67;65.65;99413.90;106054;1276;108914;-71
2022/03/09 11:21:05;;;;;;;50.70;29.10;;;;;;;3.68;65.76;99409.29;106164;1273;96436;-70
2022/03/09 11:23:34;;;;;;;52.90;31.10;;;;;;;3.69;65.95;99400.66;106204;1273;95813;-70
2022/03/09 11:26:08;;;;;;;55.00;33.40;;;;;;;3.70;65.86;99405.92;106185;1273;111472;-70
2022/03/09 11:28:42;;;;;;;53.20;30.40;;;;;;;3.72;65.74;99403.73;106161;1273;95710;-68
2022/03/09 11:31:12;;;;;;;54.40;31.60;;;;;;;3.70;65.81;99406.77;106135;1273;107739;-69
2022/03/09 11:33:48;;;;;;;52.70;31.90;;;;;;;3.71;65.92;99406.73;106174;1273;96526;-68
2022/03/09 11:36:23;;;;;;;54.60;32.30;;;;;;;3.69;65.55;99407.86;106086;1273;97966;-68